Time;durP1;ratioP1;P1;durP2;ratioP2;P2;SDS_P1;SDS_P2;PMS_P1;PMS_P2;Temp;Humidity;BMP_temperature;BMP_pressure;BME280_temperature;BME280_humidity;BME280_pressure;Samples;Min_cycle;Max_cycle;Signal;HPM_P1;HPM_P2
2021/03/09 00:00:35;;;;;;;;;;;;;;;16.30;32.67;100273.72;4413172;32;19966;-54
2021/03/09 00:03:01;;;;;;;;;;;;;;;16.32;32.63;100273.75;4413573;32;20267;-51
2021/03/09 00:05:27;;;;;;;;;;;;;;;16.30;32.64;100271.06;4408133;32;19954;-52
2021/03/09 00:07:53;;;;;;;;;;;;;;;16.32;32.61;100270.22;4410755;32;19958;-52
2021/03/09 00:10:19;;;;;;;;;;;;;;;16.35;32.56;100272.94;4413500;32;19961;-51
2021/03/09 00:12:45;;;;;;;;;;;;;;;16.33;32.64;100277.25;4410086;32;19974;-53
2021/03/09 00:15:11;;;;;;;;;;;;;;;16.29;32.64;100274.56;4410082;32;19982;-49
2021/03/09 00:17:37;;;;;;;;;;;;;;;16.30;32.63;100278.09;4413247;32;20060;-51
2021/03/09 00:20:02;;;;;;;;;;;;;;;16.29;32.61;100271.94;4412324;32;19999;-53
2021/03/09 00:22:28;;;;;;;;;;;;;;;16.28;32.65;100272.78;4411444;32;21159;-53
2021/03/09 00:24:54;;;;;;;;;;;;;;;16.27;32.67;100275.34;4410007;32;19958;-54
2021/03/09 00:27:20;;;;;;;;;;;;;;;16.21;32.75;100270.81;4410787;32;19990;-53
2021/03/09 00:29:46;;;;;;;;;;;;;;;16.25;32.67;100270.06;4414079;32;20000;-50
2021/03/09 00:32:12;;;;;;;;;;;;;;;16.23;32.74;100266.50;4416441;32;20342;-52
2021/03/09 00:34:38;;;;;;;;;;;;;;;16.18;32.80;100270.75;4419326;32;19985;-54
2021/03/09 00:37:04;;;;;;;;;;;;;;;16.23;32.73;100265.62;4414223;32;20010;-48
2021/03/09 00:39:30;;;;;;;;;;;;;;;16.25;32.68;100267.44;4415658;32;20011;-52
2021/03/09 00:41:55;;;;;;;;;;;;;;;16.24;32.66;100263.03;4415454;32;20000;-54
2021/03/09 00:44:21;;;;;;;;;;;;;;;16.22;32.70;100262.09;4413621;32;20393;-52
2021/03/09 00:46:47;;;;;;;;;;;;;;;16.21;32.71;100264.69;4413984;32;20006;-48
2021/03/09 00:49:13;;;;;;;;;;;;;;;16.22;32.70;100261.22;4414632;32;20015;-53
2021/03/09 00:51:39;;;;;;;;;;;;;;;16.19;32.73;100264.63;4413847;32;20316;-54
2021/03/09 00:54:05;;;;;;;;;;;;;;;16.22;32.69;100262.09;4413880;32;19954;-53
2021/03/09 00:56:31;;;;;;;;;;;;;;;16.23;32.68;100255.09;4427812;32;20361;-53
2021/03/09 00:58:57;;;;;;;;;;;;;;;16.22;32.67;100261.22;4416550;32;19984;-51
2021/03/09 01:01:23;;;;;;;;;;;;;;;16.18;32.71;100254.97;4414125;32;20065;-54
2021/03/09 01:03:48;;;;;;;;;;;;;;;16.16;32.74;100251.41;4415453;32;20538;-53
2021/03/09 01:06:14;;;;;;;;;;;;;;;16.16;32.73;100240.91;4417842;32;19962;-53
2021/03/09 01:08:40;;;;;;;;;;;;;;;16.19;32.71;100246.25;4415892;32;20069;-53
2021/03/09 01:11:06;;;;;;;;;;;;;;;16.21;32.68;100243.66;4420386;32;19995;-53
2021/03/09 01:13:32;;;;;;;;;;;;;;;16.18;32.70;100246.22;4417325;32;19965;-54
2021/03/09 01:15:58;;;;;;;;;;;;;;;16.19;32.71;100240.13;4416343;32;20003;-50
2021/03/09 01:18:24;;;;;;;;;;;;;;;16.18;32.70;100248.84;4416355;32;19969;-52
2021/03/09 01:20:50;;;;;;;;;;;;;;;16.19;32.66;100240.97;4422920;32;20027;-53
2021/03/09 01:23:16;;;;;;;;;;;;;;;16.20;32.65;100242.75;4428267;32;20013;-54
2021/03/09 01:25:42;;;;;;;;;;;;;;;16.19;32.68;100242.75;4421990;32;19958;-54
2021/03/09 01:28:07;;;;;;;;;;;;;;;16.14;32.72;100238.22;4415435;32;19982;-50
2021/03/09 01:30:33;;;;;;;;;;;;;;;16.14;32.76;100234.72;4420304;32;20429;-52
2021/03/09 01:32:59;;;;;;;;;;;;;;;16.15;32.69;100234.75;4417383;32;20001;-51
2021/03/09 01:35:25;;;;;;;;;;;;;;;16.15;32.70;100233.87;4423112;32;19974;-53
2021/03/09 01:37:51;;;;;;;;;;;;;;;16.14;32.67;100232.09;4418644;32;19953;-51
2021/03/09 01:40:17;;;;;;;;;;;;;;;16.12;32.70;100228.53;4416617;32;20303;-53
2021/03/09 01:42:43;;;;;;;;;;;;;;;16.14;32.69;100237.34;4416058;32;19968;-50
2021/03/09 01:45:09;;;;;;;;;;;;;;;16.11;32.73;100232.91;4415731;32;19958;-54
2021/03/09 01:47:35;;;;;;;;;;;;;;;16.12;32.75;100228.53;4416053;32;19966;-54
2021/03/09 01:50:00;;;;;;;;;;;;;;;16.07;32.81;100224.88;4416853;32;19983;-52
2021/03/09 01:52:26;;;;;;;;;;;;;;;16.12;32.76;100212.78;4415056;32;20361;-52
2021/03/09 01:54:52;;;;;;;;;;;;;;;16.13;32.74;100217.19;4416806;32;19973;-53
2021/03/09 01:57:18;;;;;;;;;;;;;;;16.09;32.78;100208.31;4417694;32;19996;-52
2021/03/09 01:59:44;;;;;;;;;;;;;;;16.15;32.72;100212.84;4415609;32;19996;-51
2021/03/09 02:02:10;;;;;;;;;;;;;;;16.12;32.79;100207.53;4419758;32;20006;-54
2021/03/09 02:04:36;;;;;;;;;;;;;;;16.05;32.87;100216.06;4419413;32;20321;-52
2021/03/09 02:07:02;;;;;;;;;;;;;;;16.06;32.81;100207.34;4422122;32;19977;-51
2021/03/09 02:09:28;;;;;;;;;;;;;;;16.09;32.80;100199.53;4418832;32;20004;-52
2021/03/09 02:11:54;;;;;;;;;;;;;;;16.09;32.76;100202.16;4427797;32;19957;-52
2021/03/09 02:14:20;;;;;;;;;;;;;;;16.05;32.84;100195.06;4418087;32;19962;-54
2021/03/09 02:16:45;;;;;;;;;;;;;;;15.97;32.94;100193.09;4419267;32;20029;-51
2021/03/09 02:19:11;;;;;;;;;;;;;;;15.97;32.95;100190.47;4416974;32;19987;-50
2021/03/09 02:21:38;;;;;;;;;;;;;;;15.96;33.00;100193.94;4416422;32;19973;-50
2021/03/09 02:24:04;;;;;;;;;;;;;;;15.93;33.05;100191.25;4414354;32;20275;-50
2021/03/09 02:26:30;;;;;;;;;;;;;;;15.89;33.12;100192.00;4417738;32;19961;-52
2021/03/09 02:28:55;;;;;;;;;;;;;;;15.95;33.05;100189.53;4415222;32;20543;-52
2021/03/09 02:31:21;;;;;;;;;;;;;;;15.94;33.04;100187.78;4418752;32;19965;-53
2021/03/09 02:33:47;;;;;;;;;;;;;;;15.91;33.04;100174.56;4421769;32;19999;-52
2021/03/09 02:36:13;;;;;;;;;;;;;;;15.85;33.15;100179.59;4424128;32;19988;-53
2021/03/09 02:38:39;;;;;;;;;;;;;;;15.76;33.33;100166.25;4415982;32;20036;-52
2021/03/09 02:41:05;;;;;;;;;;;;;;;15.77;33.27;100168.88;4415903;32;20618;-54
2021/03/09 02:43:31;;;;;;;;;;;;;;;15.76;33.32;100171.47;4414367;32;20029;-52
2021/03/09 02:45:57;;;;;;;;;;;;;;;15.69;33.46;100173.91;4425914;32;19953;-52
2021/03/09 02:48:23;;;;;;;;;;;;;;;15.57;33.66;100165.69;4414992;32;20126;-54
2021/03/09 02:50:49;;;;;;;;;;;;;;;15.59;33.63;100169.25;4427419;32;19957;-51
2021/03/09 02:53:15;;;;;;;;;;;;;;;15.63;33.53;100165.87;4415913;32;19962;-51
2021/03/09 02:55:40;;;;;;;;;;;;;;;15.55;33.73;100160.38;4423063;32;19954;-50
2021/03/09 02:58:06;;;;;;;;;;;;;;;15.59;33.68;100153.50;4415396;32;20030;-53
2021/03/09 03:00:32;;;;;;;;;;;;;;;15.51;33.80;100149.78;4416148;32;20012;-53
2021/03/09 03:03:00;;;;;;;;;;;;;;;15.49;33.79;100156.69;4418205;32;19972;-54
2021/03/09 03:05:25;;;;;;;;;;;;;;;15.56;33.68;100153.41;4418105;32;19987;-50
2021/03/09 03:07:51;;;;;;;;;;;;;;;15.50;33.81;100148.87;4419035;32;19954;-49
2021/03/09 03:10:17;;;;;;;;;;;;;;;15.46;33.86;100153.16;4415126;32;19954;-52
2021/03/09 03:12:43;;;;;;;;;;;;;;;15.48;33.84;100150.56;4414520;32;19972;-53
2021/03/09 03:15:09;;;;;;;;;;;;;;;15.51;33.79;100155.03;4414332;32;19958;-53
2021/03/09 03:17:35;;;;;;;;;;;;;;;15.45;33.86;100146.13;4415512;32;19957;-51
2021/03/09 03:20:01;;;;;;;;;;;;;;;15.37;34.06;100152.00;4414276;32;20331;-54
2021/03/09 03:22:27;;;;;;;;;;;;;;;15.29;34.18;100149.16;4415622;32;19988;-54
2021/03/09 03:24:53;;;;;;;;;;;;;;;15.28;34.21;100145.63;4415834;32;19954;-52
2021/03/09 03:27:19;;;;;;;;;;;;;;;15.41;33.97;100144.25;4416550;32;19950;-53
2021/03/09 03:29:45;;;;;;;;;;;;;;;15.35;34.06;100151.94;4417296;32;20001;-54
2021/03/09 03:32:11;;;;;;;;;;;;;;;15.40;33.98;100146.81;4419786;32;20380;-54
2021/03/09 03:34:36;;;;;;;;;;;;;;;15.41;33.97;100145.97;4427376;32;19954;-54
2021/03/09 03:37:02;;;;;;;;;;;;;;;15.37;34.07;100147.66;4412807;32;19984;-53
2021/03/09 03:39:28;;;;;;;;;;;;;;;15.35;34.09;100145.81;4417813;32;20223;-54
2021/03/09 03:41:54;;;;;;;;;;;;;;;15.40;34.04;100152.97;4414909;32;20390;-54
2021/03/09 03:44:20;;;;;;;;;;;;;;;15.51;33.88;100153.28;4416202;32;19993;-53
2021/03/09 03:46:46;;;;;;;;;;;;;;;15.36;34.04;100150.22;4414745;32;19993;-53
2021/03/09 03:49:12;;;;;;;;;;;;;;;15.34;34.10;100152.78;4414887;32;19954;-51
2021/03/09 03:51:38;;;;;;;;;;;;;;;15.31;34.23;100147.44;4414475;32;19946;-50
2021/03/09 03:54:04;;;;;;;;;;;;;;;15.38;34.06;100144.19;4415207;32;19992;-52
2021/03/09 03:56:29;;;;;;;;;;;;;;;15.38;34.03;100144.19;4415295;32;19966;-50
2021/03/09 03:58:55;;;;;;;;;;;;;;;15.27;34.25;100141.22;4416690;32;19968;-51
2021/03/09 04:01:21;;;;;;;;;;;;;;;15.31;34.13;100144.84;4410768;32;19991;-54
2021/03/09 04:03:47;;;;;;;;;;;;;;;15.40;33.99;100145.09;4419664;32;20791;-54
2021/03/09 04:06:13;;;;;;;;;;;;;;;15.40;33.98;100142.50;4415692;32;20009;-53
2021/03/09 04:08:39;;;;;;;;;;;;;;;15.40;33.99;100137.25;4421585;32;19965;-52
2021/03/09 04:11:05;;;;;;;;;;;;;;;15.32;34.11;100133.50;4419637;32;19965;-52
2021/03/09 04:13:31;;;;;;;;;;;;;;;15.45;33.92;100134.75;4416382;32;20005;-53
2021/03/09 04:15:57;;;;;;;;;;;;;;;15.51;33.92;100134.91;4414665;32;20015;-52
2021/03/09 04:18:23;;;;;;;;;;;;;;;15.49;33.83;100126.09;4419935;32;20033;-53
2021/03/09 04:20:49;;;;;;;;;;;;;;;15.38;34.04;100128.44;4414611;32;19954;-52
2021/03/09 04:23:15;;;;;;;;;;;;;;;15.28;34.19;100129.88;4415844;32;19954;-52
2021/03/09 04:25:41;;;;;;;;;;;;;;;15.33;34.10;100127.41;4415949;32;19950;-53
2021/03/09 04:28:07;;;;;;;;;;;;;;;15.49;33.78;100122.56;4418635;32;20013;-54
2021/03/09 04:30:32;;;;;;;;;;;;;;;15.57;33.65;100123.69;4420694;32;20323;-51
2021/03/09 04:32:58;;;;;;;;;;;;;;;15.51;33.74;100128.78;4419593;32;19962;-48
2021/03/09 04:35:24;;;;;;;;;;;;;;;15.48;33.76;100120.81;4417401;32;19972;-54
2021/03/09 04:37:50;;;;;;;;;;;;;;;15.55;33.70;100122.78;4420918;32;19982;-54
2021/03/09 04:40:16;;;;;;;;;;;;;;;15.57;33.62;100123.69;4422200;32;20314;-54
2021/03/09 04:42:42;;;;;;;;;;;;;;;15.57;33.56;100128.94;4416164;32;20011;-51
2021/03/09 04:45:08;;;;;;;;;;;;;;;15.45;33.79;100126.88;4418228;32;20031;-51
2021/03/09 04:47:34;;;;;;;;;;;;;;;15.43;33.83;100126.81;4417698;32;19968;-53
2021/03/09 04:49:59;;;;;;;;;;;;;;;15.41;33.87;100123.28;4415450;32;20004;-50
2021/03/09 04:52:26;;;;;;;;;;;;;;;15.29;34.07;100123.78;4414261;32;20331;-52
2021/03/09 04:54:51;;;;;;;;;;;;;;;15.39;33.92;100130.22;4414415;32;20396;-50
2021/03/09 04:57:17;;;;;;;;;;;;;;;15.41;33.90;100127.63;4415365;32;20096;-54
2021/03/09 04:59:43;;;;;;;;;;;;;;;15.44;33.86;100130.34;4414670;32;19998;-54
2021/03/09 05:02:09;;;;;;;;;;;;;;;15.38;33.96;100124.91;4415958;32;19953;-54
2021/03/09 05:04:35;;;;;;;;;;;;;;;15.37;34.00;100125.75;4417560;32;20021;-52
2021/03/09 05:07:01;;;;;;;;;;;;;;;15.32;34.09;100123.91;4420407;32;19950;-53
2021/03/09 05:09:27;;;;;;;;;;;;;;;15.31;34.15;100123.84;4421624;32;19957;-54
2021/03/09 05:11:53;;;;;;;;;;;;;;;15.28;34.17;100131.63;4421984;32;20019;-48
2021/03/09 05:14:19;;;;;;;;;;;;;;;15.33;34.05;100124.78;4419555;32;19979;-52
2021/03/09 05:16:45;;;;;;;;;;;;;;;15.30;34.08;100125.56;4418579;32;19975;-52
2021/03/09 05:19:11;;;;;;;;;;;;;;;15.41;33.96;100120.66;4416268;32;19950;-50
2021/03/09 05:21:37;;;;;;;;;;;;;;;15.42;33.87;100122.41;4419696;32;20023;-52
2021/03/09 05:24:03;;;;;;;;;;;;;;;15.31;34.06;100127.38;4416302;32;20298;-47
2021/03/09 05:26:29;;;;;;;;;;;;;;;15.32;34.08;100130.88;4418700;32;19969;-53
2021/03/09 05:28:56;;;;;;;;;;;;;;;15.42;33.92;100132.91;4414443;32;19969;-49
2021/03/09 05:31:22;;;;;;;;;;;;;;;15.37;34.05;100129.28;4415834;32;19960;-53
2021/03/09 05:33:48;;;;;;;;;;;;;;;15.39;34.01;100126.69;4415603;32;20001;-52
2021/03/09 05:36:14;;;;;;;;;;;;;;;15.32;34.10;100125.63;4415516;32;19969;-54
2021/03/09 05:38:40;;;;;;;;;;;;;;;15.38;34.01;100123.19;4414940;32;19950;-54
2021/03/09 05:41:06;;;;;;;;;;;;;;;15.35;34.02;100117.81;4415398;32;20358;-52
2021/03/09 05:43:32;;;;;;;;;;;;;;;15.40;33.97;100121.50;4415578;32;20001;-53
2021/03/09 05:45:58;;;;;;;;;;;;;;;15.25;34.22;100126.28;4415461;32;19946;-52
2021/03/09 05:48:24;;;;;;;;;;;;;;;15.27;34.24;100127.22;4417014;32;19954;-54
2021/03/09 05:50:49;;;;;;;;;;;;;;;15.18;34.38;100128.72;4417932;32;19958;-51
2021/03/09 05:53:15;;;;;;;;;;;;;;;15.20;34.41;100138.38;4420187;32;19987;-53
2021/03/09 05:55:41;;;;;;;;;;;;;;;15.17;34.44;100129.56;4419885;32;19992;-50
2021/03/09 05:58:07;;;;;;;;;;;;;;;15.29;34.23;100131.66;4419790;32;19974;-52
2021/03/09 06:00:33;;;;;;;;;;;;;;;15.35;34.09;100137.94;4414294;32;19982;-53
2021/03/09 06:02:59;;;;;;;;;;;;;;;15.45;33.91;100140.00;4420254;32;20270;-52
2021/03/09 06:05:25;;;;;;;;;;;;;;;15.38;34.04;100128.44;4415817;32;20032;-50
2021/03/09 06:07:51;;;;;;;;;;;;;;;15.34;34.11;100131.78;4419631;32;20008;-50
2021/03/09 06:10:17;;;;;;;;;;;;;;;15.36;34.14;100129.22;4421959;32;19993;-53
2021/03/09 06:12:43;;;;;;;;;;;;;;;15.31;34.20;100136.97;4424174;32;19983;-54
2021/03/09 06:15:09;;;;;;;;;;;;;;;15.41;34.01;100128.50;4418762;32;19962;-52
2021/03/09 06:17:37;;;;;;;;;;;;;;;15.27;34.28;100133.34;4415386;32;19958;-52
2021/03/09 06:20:03;;;;;;;;;;;;;;;15.35;34.17;100132.69;4424765;32;20267;-54
2021/03/09 06:22:29;;;;;;;;;;;;;;;15.46;33.90;100126.91;4423080;32;20399;-54
2021/03/09 06:24:55;;;;;;;;;;;;;;;15.32;34.15;100133.50;4419161;32;20007;-54
2021/03/09 06:27:21;;;;;;;;;;;;;;;15.38;34.08;100122.28;4421234;32;20322;-53
2021/03/09 06:29:46;;;;;;;;;;;;;;;15.43;33.96;100121.56;4417074;32;19937;-53
2021/03/09 06:32:12;;;;;;;;;;;;;;;15.44;33.93;100133.84;4421470;32;19961;-53
2021/03/09 06:34:38;;;;;;;;;;;;;;;15.40;34.06;100126.75;4423012;32;20017;-54
2021/03/09 06:37:04;;;;;;;;;;;;;;;15.52;33.84;100126.19;4422905;32;20057;-51
2021/03/09 06:39:30;;;;;;;;;;;;;;;15.56;33.77;100133.31;4425256;32;19966;-53
2021/03/09 06:41:57;;;;;;;;;;;;;;;15.68;33.60;100127.50;4422928;32;20332;-54
2021/03/09 06:44:23;;;;;;;;;;;;;;;15.64;33.59;100123.03;4421353;32;20025;-53
2021/03/09 06:46:49;;;;;;;;;;;;;;;15.58;33.70;100128.09;4419286;32;20020;-53
2021/03/09 06:49:14;;;;;;;;;;;;;;;15.56;33.74;100132.41;4422938;32;20010;-51
2021/03/09 06:51:40;;;;;;;;;;;;;;;15.54;33.78;100129.75;4423552;32;19954;-53
2021/03/09 06:54:06;;;;;;;;;;;;;;;15.56;33.77;100135.03;4421304;32;19993;-51
2021/03/09 06:56:32;;;;;;;;;;;;;;;15.51;33.91;100139.28;4420712;32;19950;-50
2021/03/09 06:58:58;;;;;;;;;;;;;;;15.55;33.83;100144.63;4417696;32;20003;-54
2021/03/09 07:01:24;;;;;;;;;;;;;;;15.53;33.88;100148.09;4416485;32;20319;-50
2021/03/09 07:03:50;;;;;;;;;;;;;;;15.44;34.05;100146.97;4415880;32;19985;-51
2021/03/09 07:06:16;;;;;;;;;;;;;;;15.37;34.22;100149.37;4419454;32;19997;-51
2021/03/09 07:08:42;;;;;;;;;;;;;;;15.37;34.21;100147.66;4420303;32;19962;-49
2021/03/09 07:11:07;;;;;;;;;;;;;;;15.37;34.23;100142.41;4417427;32;19966;-51
2021/03/09 07:13:33;;;;;;;;;;;;;;;15.30;34.36;100140.44;4424926;32;20292;-53
2021/03/09 07:15:59;;;;;;;;;;;;;;;15.28;34.39;100152.63;4428230;32;20366;-48
2021/03/09 07:18:25;;;;;;;;;;;;;;;15.31;34.32;100147.44;4429411;32;20053;-52
2021/03/09 07:20:51;;;;;;;;;;;;;;;15.35;34.26;100154.56;4429905;32;20008;-52
2021/03/09 07:23:17;;;;;;;;;;;;;;;15.36;34.28;100156.34;4427782;32;20281;-51
2021/03/09 07:25:43;;;;;;;;;;;;;;;15.36;34.30;100158.97;4420164;32;19950;-51
2021/03/09 07:28:09;;;;;;;;;;;;;;;15.39;34.18;100161.69;4429810;32;19992;-54
2021/03/09 07:30:39;;;;;;;;;;;;;;;15.35;34.33;100158.94;4429287;32;19992;-52
2021/03/09 07:33:05;;;;;;;;;;;;;;;15.45;34.13;100156.63;4422320;32;19958;-54
2021/03/09 07:35:31;;;;;;;;;;;;;;;15.46;34.12;100166.28;4424218;32;20005;-53
2021/03/09 07:37:57;;;;;;;;;;;;;;;15.55;34.00;100162.13;4422842;32;19987;-51
2021/03/09 07:40:23;;;;;;;;;;;;;;;15.55;33.99;100159.50;4428675;32;20072;-51
2021/03/09 07:42:49;;;;;;;;;;;;;;;15.59;34.07;100166.63;4425506;32;20003;-53
2021/03/09 07:45:15;;;;;;;;;;;;;;;15.61;33.90;100162.31;4425264;32;19969;-51
2021/03/09 07:47:41;;;;;;;;;;;;;;;15.52;34.08;100169.94;4426960;32;19957;-51
2021/03/09 07:50:08;;;;;;;;;;;;;;;15.63;33.95;100159.72;4423126;32;19954;-51
2021/03/09 07:52:34;;;;;;;;;;;;;;;15.64;33.97;100165.03;4427313;32;20001;-51
2021/03/09 07:55:00;;;;;;;;;;;;;;;15.69;33.85;100165.16;4428034;32;19969;-47
2021/03/09 07:57:26;;;;;;;;;;;;;;;15.63;33.97;100164.97;4426055;32;19966;-50
2021/03/09 07:59:52;;;;;;;;;;;;;;;15.60;34.01;100171.03;4428983;32;19962;-52
2021/03/09 08:02:17;;;;;;;;;;;;;;;15.63;33.97;100160.62;4430995;32;20575;-50
2021/03/09 08:04:43;;;;;;;;;;;;;;;15.66;33.94;100165.97;4427002;32;19958;-54
2021/03/09 08:07:09;;;;;;;;;;;;;;;15.72;33.83;100166.13;4423422;32;19947;-51
2021/03/09 08:09:35;;;;;;;;;;;;;;;15.72;33.83;100166.13;4427957;32;20290;-52
2021/03/09 08:12:01;;;;;;;;;;;;;;;15.79;33.77;100161.06;4428683;32;19958;-53
2021/03/09 08:14:27;;;;;;;;;;;;;;;15.78;33.79;100164.53;4420585;32;20096;-54
2021/03/09 08:16:53;;;;;;;;;;;;;;;15.81;33.82;100167.25;4427360;32;20336;-53
2021/03/09 08:19:19;;;;;;;;;;;;;;;15.83;33.76;100168.16;4423671;32;20022;-51
2021/03/09 08:21:45;;;;;;;;;;;;;;;15.89;33.70;100170.97;4425921;32;20283;-52
2021/03/09 08:24:11;;;;;;;;;;;;;;;15.90;33.65;100167.53;4425737;32;20021;-50
2021/03/09 08:26:37;;;;;;;;;;;;;;;15.88;33.67;100167.44;4426187;32;20001;-50
2021/03/09 08:29:03;;;;;;;;;;;;;;;15.91;33.68;100161.44;4427290;32;19969;-51
2021/03/09 08:31:29;;;;;;;;;;;;;;;15.89;33.73;100163.09;4427832;32;20090;-52
2021/03/09 08:33:56;;;;;;;;;;;;;;;15.88;33.79;100163.94;4428592;32;20013;-50
2021/03/09 08:38:47;;;;;;;;;;;;;;;15.95;33.70;100163.28;4427689;32;19965;-51
2021/03/09 08:41:13;;;;;;;;;;;;;;;15.87;33.82;100165.66;4428204;32;19969;-53
2021/03/09 08:43:39;;;;;;;;;;;;;;;15.90;33.81;100169.25;4426209;32;20046;-51
2021/03/09 08:46:06;;;;;;;;;;;;;;;15.90;33.81;100164.91;4428663;32;20028;-51
2021/03/09 08:48:32;;;;;;;;;;;;;;;15.92;33.80;100165.84;4423801;32;19954;-53
2021/03/09 08:50:58;;;;;;;;;;;;;;;15.90;33.85;100159.66;4425242;32;19995;-47
2021/03/09 08:53:24;;;;;;;;;;;;;;;15.90;33.87;100162.28;4425493;32;19942;-49
2021/03/09 08:55:50;;;;;;;;;;;;;;;15.95;33.82;100162.41;4424756;32;19962;-50
2021/03/09 08:58:16;;;;;;;;;;;;;;;15.95;33.87;100158.03;4420990;32;20041;-53
2021/03/09 09:00:42;;;;;;;;;;;;;;;15.99;33.79;100154.66;4426549;32;19961;-52
2021/03/09 09:03:08;;;;;;;;;;;;;;;16.02;33.80;100156.47;4427566;32;19961;-50
2021/03/09 09:05:34;;;;;;;;;;;;;;;16.08;33.73;100147.84;4428727;32;20001;-52
2021/03/09 09:08:00;;;;;;;;;;;;;;;16.11;33.67;100147.94;4426765;32;20318;-52
2021/03/09 09:10:26;;;;;;;;;;;;;;;16.11;33.72;100153.19;4427966;32;19958;-52
2021/03/09 09:12:52;;;;;;;;;;;;;;;16.13;33.69;100154.12;4423564;32;19942;-52
2021/03/09 09:15:18;;;;;;;;;;;;;;;16.18;33.64;100149.00;4422742;32;20339;-50
2021/03/09 09:17:44;;;;;;;;;;;;;;;16.21;33.61;100156.97;4426434;32;19973;-51
2021/03/09 09:20:10;;;;;;;;;;;;;;;16.25;33.57;100150.94;4427852;32;20010;-53
2021/03/09 09:22:36;;;;;;;;;;;;;;;16.29;33.51;100156.31;4425851;32;19962;-48
2021/03/09 09:25:05;;;;;;;;;;;;;;;16.27;33.60;100152.75;4420370;32;19981;-49
2021/03/09 09:27:31;;;;;;;;;;;;;;;16.26;33.59;100152.69;4426586;32;19958;-49
2021/03/09 09:29:57;;;;;;;;;;;;;;;16.21;33.74;100152.56;4428113;32;20044;-55
2021/03/09 09:32:23;;;;;;;;;;;;;;;15.84;33.12;100154.19;4429582;32;20032;-45
2021/03/09 09:34:48;;;;;;;;;;;;;;;15.55;34.39;100159.50;4428486;32;20376;-45
2021/03/09 09:37:14;;;;;;;;;;;;;;;15.72;34.21;100150.38;4429323;32;20018;-43
2021/03/09 09:39:40;;;;;;;;;;;;;;;15.86;33.99;100152.50;4427070;32;20001;-43
2021/03/09 09:42:06;;;;;;;;;;;;;;;15.94;34.01;100151.00;4424412;32;19994;-44
2021/03/09 09:44:32;;;;;;;;;;;;;;;16.00;33.99;100143.31;4428081;32;19962;-47
2021/03/09 09:46:58;;;;;;;;;;;;;;;16.09;33.90;100141.75;4430256;32;19968;-50
2021/03/09 09:49:24;;;;;;;;;;;;;;;16.06;34.01;100137.31;4429022;32;19987;-47
2021/03/09 09:51:50;;;;;;;;;;;;;;;16.08;34.05;100132.09;4428235;32;19958;-48
2021/03/09 09:54:16;;;;;;;;;;;;;;;16.05;34.23;100137.28;4422612;32;19976;-48
2021/03/09 09:56:42;;;;;;;;;;;;;;;16.04;34.32;100138.13;4427429;32;20005;-49
2021/03/09 09:59:08;;;;;;;;;;;;;;;15.96;34.54;100133.53;4423807;32;20243;-47
2021/03/09 10:01:38;;;;;;;;;;;;;;;15.93;34.69;100133.47;4423606;32;20002;-47
2021/03/09 10:04:04;;;;;;;;;;;;;;;15.97;34.74;100132.69;4428348;32;19996;-49
2021/03/09 10:06:30;;;;;;;;;;;;;;;16.00;34.78;100131.91;4429843;32;19989;-48
2021/03/09 10:08:56;;;;;;;;;;;;;;;15.98;34.95;100129.22;4426626;32;20011;-45
2021/03/09 10:11:22;;;;;;;;;;;;;;;15.97;35.04;100130.06;4429472;32;19992;-45
2021/03/09 10:13:48;;;;;;;;;;;;;;;16.02;35.04;100132.81;4428565;32;19998;-46
2021/03/09 10:16:14;;;;;;;;;;;;;;;16.02;35.16;100128.47;4423573;32;20339;-45
2021/03/09 10:18:40;;;;;;;;;;;;;;;16.09;35.15;100129.53;4427084;32;19954;-43
2021/03/09 10:21:06;;;;;;;;;;;;;;;16.15;35.10;100128.78;4426777;32;20077;-45
2021/03/09 10:23:32;;;;;;;;;;;;;;;16.05;35.36;100127.66;4427648;32;19981;-44
2021/03/09 10:25:57;;;;;;;;;;;;;;;16.05;35.49;100116.25;4429518;32;19957;-48
2021/03/09 10:28:23;;;;;;;;;;;;;;;16.02;35.65;100131.09;4429732;32;20362;-46
2021/03/09 10:30:49;;;;;;;;;;;;;;;16.10;35.69;100125.13;4429367;32;20009;-45
2021/03/09 10:33:15;;;;;;;;;;;;;;;16.14;35.58;100117.38;4429475;32;19977;-47
2021/03/09 10:35:41;;;;;;;;;;;;;;;16.20;35.68;100124.53;4430185;32;19996;-46
2021/03/09 10:38:07;;;;;;;;;;;;;;;16.27;35.58;100117.69;4428196;32;19993;-49
2021/03/09 10:40:36;;;;;;;;;;;;;;;16.32;35.61;100116.09;4428741;32;19992;-45
2021/03/09 10:43:02;;;;;;;;;;;;;;;16.38;35.63;100117.97;4430786;32;19998;-43
2021/03/09 10:45:29;;;;;;;;;;;;;;;16.44;35.56;100116.38;4425829;32;19980;-47
2021/03/09 10:47:54;;;;;;;;;;;;;;;16.56;35.45;100113.16;4430288;32;19961;-48
2021/03/09 10:50:20;;;;;;;;;;;;;;;16.56;35.60;100120.16;4428037;32;19953;-44
2021/03/09 10:52:46;;;;;;;;;;;;;;;16.63;35.53;100116.81;4426367;32;20164;-47
2021/03/09 10:55:12;;;;;;;;;;;;;;;16.79;35.23;100109.28;4426676;32;19966;-47
2021/03/09 10:57:38;;;;;;;;;;;;;;;16.86;35.27;100104.22;4429853;32;19953;-45
2021/03/09 11:00:05;;;;;;;;;;;;;;;16.80;35.38;100109.31;4422125;32;19958;-45
2021/03/09 11:02:31;;;;;;;;;;;;;;;16.77;35.49;100106.62;4427771;32;19968;-48
2021/03/09 11:04:57;;;;;;;;;;;;;;;16.93;35.26;100105.25;4429530;32;19958;-46
2021/03/09 11:07:22;;;;;;;;;;;;;;;16.92;35.32;100113.09;4425365;32;20745;-50
2021/03/09 11:09:48;;;;;;;;;;;;;;;16.97;35.30;100114.06;4428746;32;19961;-44
2021/03/09 11:12:14;;;;;;;;;;;;;;;17.03;35.33;100109.00;4430350;32;19958;-47
2021/03/09 11:14:40;;;;;;;;;;;;;;;17.17;35.24;100105.75;4428119;32;19961;-46
2021/03/09 11:17:06;;;;;;;;;;;;;;;17.26;35.02;100106.84;4429075;32;19993;-48
2021/03/09 11:19:32;;;;;;;;;;;;;;;17.31;34.96;100109.56;4427441;32;20391;-45
2021/03/09 11:21:58;;;;;;;;;;;;;;;17.25;35.09;100102.44;4425739;32;19988;-49
2021/03/09 11:24:24;;;;;;;;;;;;;;;17.29;35.09;100098.13;4423167;32;19961;-46
2021/03/09 11:26:53;;;;;;;;;;;;;;;17.42;34.95;100102.78;4427969;32;19954;-49
2021/03/09 11:29:19;;;;;;;;;;;;;;;17.54;34.68;100101.25;4428118;32;20355;-49
2021/03/09 11:31:45;;;;;;;;;;;;;;;17.61;34.58;100103.16;4429587;32;19966;-50
2021/03/09 11:34:11;;;;;;;;;;;;;;;17.64;34.50;100100.59;4429669;32;20005;-47
2021/03/09 11:36:38;;;;;;;;;;;;;;;17.68;34.40;100102.41;4428243;32;20025;-48
2021/03/09 11:39:04;;;;;;;;;;;;;;;17.68;34.44;100102.41;4424849;32;19958;-51
2021/03/09 11:41:30;;;;;;;;;;;;;;;17.72;34.34;100097.19;4428365;32;19957;-50
2021/03/09 11:43:56;;;;;;;;;;;;;;;17.75;34.30;100090.25;4428420;32;19962;-47
2021/03/09 11:46:22;;;;;;;;;;;;;;;17.78;34.28;100092.06;4422959;32;20388;-50
2021/03/09 11:48:47;;;;;;;;;;;;;;;17.78;34.26;100094.69;4429130;32;19960;-49
2021/03/09 11:51:15;;;;;;;;;;;;;;;17.82;34.26;100081.59;4424504;32;19953;-45
2021/03/09 11:53:41;;;;;;;;;;;;;;;17.87;34.17;100081.69;4429300;32;20005;-44
2021/03/09 11:56:07;;;;;;;;;;;;;;;17.88;34.15;100088.72;4426084;32;20303;-51
2021/03/09 11:58:33;;;;;;;;;;;;;;;17.90;34.17;100087.00;4429560;32;20013;-49
2021/03/09 12:00:59;;;;;;;;;;;;;;;17.91;34.20;100080.87;4421710;32;20013;-47
2021/03/09 12:03:25;;;;;;;;;;;;;;;17.94;34.23;100082.69;4429470;32;20339;-46
2021/03/09 12:05:51;;;;;;;;;;;;;;;17.97;34.18;100077.47;4426782;32;19980;-46
2021/03/09 12:08:17;;;;;;;;;;;;;;;17.98;34.22;100072.25;4427544;32;19965;-44
2021/03/09 12:10:43;;;;;;;;;;;;;;;18.01;34.18;100065.25;4427842;32;20021;-47
2021/03/09 12:13:09;;;;;;;;;;;;;;;18.03;34.08;100061.81;4425069;32;19962;-51
2021/03/09 12:15:35;;;;;;;;;;;;;;;18.09;33.93;100053.13;4426628;32;19991;-46
2021/03/09 12:18:01;;;;;;;;;;;;;;;18.14;33.81;100054.06;4415154;32;20429;-46
2021/03/09 12:20:27;;;;;;;;;;;;;;;18.15;33.74;100050.56;4426389;32;19957;-48
2021/03/09 12:22:53;;;;;;;;;;;;;;;18.20;33.47;100048.88;4427654;32;20267;-48
2021/03/09 12:25:19;;;;;;;;;;;;;;;18.22;33.39;100049.81;4411595;32;19958;-43
2021/03/09 12:27:44;;;;;;;;;;;;;;;18.23;33.28;100041.06;4424054;32;20321;-44
2021/03/09 12:30:11;;;;;;;;;;;;;;;18.25;33.11;100041.06;4426161;32;19953;-43